sensor_id;sensor_type;location;lat;lon;timestamp;pressure;altitude;pressure_sealevel;temperature;humidity
51468;BME280;37545;45.302;-122.946;2023-11-19T00:00:32;99646.69;;;11.46;69.90
51468;BME280;37545;45.302;-122.946;2023-11-19T00:03:02;99653.56;;;11.42;71.09
51468;BME280;37545;45.302;-122.946;2023-11-19T00:05:31;99654.41;;;11.40;72.06
51468;BME280;37545;45.302;-122.946;2023-11-19T00:08:00;99651.78;;;11.38;72.83
51468;BME280;37545;45.302;-122.946;2023-11-19T00:10:28;99650.06;;;11.37;75.30
51468;BME280;37545;45.302;-122.946;2023-11-19T00:12:57;99656.13;;;11.36;76.48
51468;BME280;37545;45.302;-122.946;2023-11-19T00:15:27;99653.53;;;11.36;79.02
51468;BME280;37545;45.302;-122.946;2023-11-19T00:17:56;99647.41;;;11.28;80.19
51468;BME280;37545;45.302;-122.946;2023-11-19T00:20:24;99652.56;;;11.28;80.54
51468;BME280;37545;45.302;-122.946;2023-11-19T00:22:53;99661.13;;;11.19;80.99
51468;BME280;37545;45.302;-122.946;2023-11-19T00:25:22;99673.13;;;11.13;80.21
51468;BME280;37545;45.302;-122.946;2023-11-19T00:27:51;99665.31;;;11.05;78.60
51468;BME280;37545;45.302;-122.946;2023-11-19T00:30:20;99676.47;;;11.01;79.49
51468;BME280;37545;45.302;-122.946;2023-11-19T00:32:50;99666.94;;;10.97;80.66
51468;BME280;37545;45.302;-122.946;2023-11-19T00:35:19;99658.22;;;10.90;78.98
51468;BME280;37545;45.302;-122.946;2023-11-19T00:37:48;99669.44;;;10.86;80.84
51468;BME280;37545;45.302;-122.946;2023-11-19T00:40:18;99672.81;;;10.82;83.14
51468;BME280;37545;45.302;-122.946;2023-11-19T00:42:49;99692.63;;;10.77;83.76
51468;BME280;37545;45.302;-122.946;2023-11-19T00:45:18;99700.28;;;10.71;84.16
51468;BME280;37545;45.302;-122.946;2023-11-19T00:47:46;99699.31;;;10.62;86.30
51468;BME280;37545;45.302;-122.946;2023-11-19T00:50:17;99698.41;;;10.57;87.67
51468;BME280;37545;45.302;-122.946;2023-11-19T00:52:45;99703.50;;;10.53;90.02
51468;BME280;37545;45.302;-122.946;2023-11-19T00:55:14;99707.72;;;10.46;91.45
51468;BME280;37545;45.302;-122.946;2023-11-19T00:57:42;99712.00;;;10.42;91.19
51468;BME280;37545;45.302;-122.946;2023-11-19T01:00:12;99708.47;;;10.36;92.23
51468;BME280;37545;45.302;-122.946;2023-11-19T01:02:45;99715.34;;;10.34;92.08
51468;BME280;37545;45.302;-122.946;2023-11-19T01:05:17;99701.44;;;10.27;93.31
51468;BME280;37545;45.302;-122.946;2023-11-19T01:07:48;99702.16;;;10.18;93.82
51468;BME280;37545;45.302;-122.946;2023-11-19T01:10:18;99710.66;;;10.08;94.24
51468;BME280;37545;45.302;-122.946;2023-11-19T01:12:47;99710.53;;;10.02;94.80
51468;BME280;37545;45.302;-122.946;2023-11-19T01:15:15;99716.50;;;9.98;95.55
51468;BME280;37545;45.302;-122.946;2023-11-19T01:17:45;99712.13;;;9.94;95.27
51468;BME280;37545;45.302;-122.946;2023-11-19T01:20:14;99712.13;;;9.92;95.16
51468;BME280;37545;45.302;-122.946;2023-11-19T01:22:44;99703.41;;;9.87;97.12
51468;BME280;37545;45.302;-122.946;2023-11-19T01:25:15;99694.72;;;9.80;97.38
51468;BME280;37545;45.302;-122.946;2023-11-19T01:27:43;99698.06;;;9.75;97.99
51468;BME280;37545;45.302;-122.946;2023-11-19T01:30:13;99697.09;;;9.68;98.79
51468;BME280;37545;45.302;-122.946;2023-11-19T01:32:44;99697.88;;;9.62;98.40
51468;BME280;37545;45.302;-122.946;2023-11-19T01:35:12;99687.41;;;9.55;99.47
51468;BME280;37545;45.302;-122.946;2023-11-19T01:37:43;99688.09;;;9.44;99.66
51468;BME280;37545;45.302;-122.946;2023-11-19T01:40:12;99698.47;;;9.48;99.70
51468;BME280;37545;45.302;-122.946;2023-11-19T01:42:42;99695.81;;;9.41;100.00
51468;BME280;37545;45.302;-122.946;2023-11-19T01:45:21;99696.63;;;9.40;100.00
51468;BME280;37545;45.302;-122.946;2023-11-19T01:47:51;99688.81;;;9.36;100.00
51468;BME280;37545;45.302;-122.946;2023-11-19T01:50:19;99687.91;;;9.32;100.00
51468;BME280;37545;45.302;-122.946;2023-11-19T01:52:50;99674.03;;;9.27;100.00
51468;BME280;37545;45.302;-122.946;2023-11-19T01:55:20;99685.13;;;9.23;100.00
51468;BME280;37545;45.302;-122.946;2023-11-19T01:57:50;99691.13;;;9.19;100.00
51468;BME280;37545;45.302;-122.946;2023-11-19T02:00:19;99691.88;;;9.15;100.00
51468;BME280;37545;45.302;-122.946;2023-11-19T02:02:48;99691.75;;;9.07;100.00
51468;BME280;37545;45.302;-122.946;2023-11-19T02:05:18;99702.94;;;9.08;100.00
51468;BME280;37545;45.302;-122.946;2023-11-19T02:07:49;99713.19;;;9.05;100.00
51468;BME280;37545;45.302;-122.946;2023-11-19T02:10:18;99726.81;;;8.97;100.00
51468;BME280;37545;45.302;-122.946;2023-11-19T02:12:54;99731.97;;;8.97;100.00
51468;BME280;37545;45.302;-122.946;2023-11-19T02:15:23;99727.69;;;8.96;100.00
51468;BME280;37545;45.302;-122.946;2023-11-19T02:18:02;99733.66;;;8.95;100.00
51468;BME280;37545;45.302;-122.946;2023-11-19T02:20:45;99737.91;;;8.92;100.00
51468;BME280;37545;45.302;-122.946;2023-11-19T02:23:15;99733.47;;;8.86;100.00
51468;BME280;37545;45.302;-122.946;2023-11-19T02:25:49;99739.53;;;8.87;100.00
51468;BME280;37545;45.302;-122.946;2023-11-19T02:28:25;99739.53;;;8.87;100.00
51468;BME280;37545;45.302;-122.946;2023-11-19T02:30:54;99742.09;;;8.87;100.00
51468;BME280;37545;45.302;-122.946;2023-11-19T02:33:23;99764.31;;;8.80;100.00
51468;BME280;37545;45.302;-122.946;2023-11-19T02:35:51;99753.94;;;8.77;100.00
51468;BME280;37545;45.302;-122.946;2023-11-19T02:38:21;99756.50;;;8.77;100.00
51468;BME280;37545;45.302;-122.946;2023-11-19T02:40:51;99753.94;;;8.77;100.00
51468;BME280;37545;45.302;-122.946;2023-11-19T02:43:19;99746.19;;;8.75;100.00
51468;BME280;37545;45.302;-122.946;2023-11-19T02:45:49;99752.16;;;8.73;100.00
51468;BME280;37545;45.302;-122.946;2023-11-19T02:48:18;99763.22;;;8.69;100.00
51468;BME280;37545;45.302;-122.946;2023-11-19T02:50:47;99759.78;;;8.68;100.00
51468;BME280;37545;45.302;-122.946;2023-11-19T02:53:15;99779.53;;;8.68;100.00
51468;BME280;37545;45.302;-122.946;2023-11-19T02:55:44;99789.84;;;8.68;100.00
51468;BME280;37545;45.302;-122.946;2023-11-19T02:58:18;99830.19;;;8.66;100.00
51468;BME280;37545;45.302;-122.946;2023-11-19T03:00:53;99865.38;;;8.62;100.00
51468;BME280;37545;45.302;-122.946;2023-11-19T03:03:24;99831.00;;;8.62;100.00
51468;BME280;37545;45.302;-122.946;2023-11-19T03:05:57;99815.47;;;8.60;100.00
51468;BME280;37545;45.302;-122.946;2023-11-19T03:08:28;99837.66;;;8.53;100.00
51468;BME280;37545;45.302;-122.946;2023-11-19T03:10:56;99858.22;;;8.50;100.00
51468;BME280;37545;45.302;-122.946;2023-11-19T03:13:25;99859.91;;;8.48;100.00
51468;BME280;37545;45.302;-122.946;2023-11-19T03:15:55;99849.66;;;8.51;100.00
51468;BME280;37545;45.302;-122.946;2023-11-19T03:18:24;99846.25;;;8.52;100.00
51468;BME280;37545;45.302;-122.946;2023-11-19T03:20:53;99841.09;;;8.54;100.00
51468;BME280;37545;45.302;-122.946;2023-11-19T03:23:21;99848.09;;;8.58;100.00
51468;BME280;37545;45.302;-122.946;2023-11-19T03:25:50;99860.97;;;8.58;100.00
51468;BME280;37545;45.302;-122.946;2023-11-19T03:28:19;99863.50;;;8.56;100.00
51468;BME280;37545;45.302;-122.946;2023-11-19T03:30:47;99863.56;;;8.58;100.00
51468;BME280;37545;45.302;-122.946;2023-11-19T03:33:17;99863.63;;;8.61;100.00
51468;BME280;37545;45.302;-122.946;2023-11-19T03:35:46;99865.41;;;8.64;100.00
51468;BME280;37545;45.302;-122.946;2023-11-19T03:38:14;99867.16;;;8.65;100.00
51468;BME280;37545;45.302;-122.946;2023-11-19T03:40:43;99868.88;;;8.66;100.00
51468;BME280;37545;45.302;-122.946;2023-11-19T03:43:12;99871.50;;;8.67;100.00
51468;BME280;37545;45.302;-122.946;2023-11-19T03:45:41;99874.94;;;8.68;100.00
51468;BME280;37545;45.302;-122.946;2023-11-19T03:48:10;99890.41;;;8.68;100.00
51468;BME280;37545;45.302;-122.946;2023-11-19T03:50:40;99892.13;;;8.67;100.00
51468;BME280;37545;45.302;-122.946;2023-11-19T03:53:12;99908.56;;;8.71;100.00
51468;BME280;37545;45.302;-122.946;2023-11-19T03:55:42;99930.88;;;8.70;100.00
51468;BME280;37545;45.302;-122.946;2023-11-19T03:58:11;99954.13;;;8.72;100.00
51468;BME280;37545;45.302;-122.946;2023-11-19T04:00:40;99969.66;;;8.73;100.00
51468;BME280;37545;45.302;-122.946;2023-11-19T04:03:08;99973.09;;;8.74;100.00
51468;BME280;37545;45.302;-122.946;2023-11-19T04:05:37;99975.69;;;8.74;100.00
51468;BME280;37545;45.302;-122.946;2023-11-19T04:08:07;99985.09;;;8.72;100.00
51468;BME280;37545;45.302;-122.946;2023-11-19T04:10:36;99986.03;;;8.75;100.00
51468;BME280;37545;45.302;-122.946;2023-11-19T04:13:04;99991.22;;;8.75;100.00
51468;BME280;37545;45.302;-122.946;2023-11-19T04:15:33;100014.44;;;8.77;100.00
51468;BME280;37545;45.302;-122.946;2023-11-19T04:18:01;100023.09;;;8.79;100.00
51468;BME280;37545;45.302;-122.946;2023-11-19T04:20:31;100033.38;;;8.77;100.00
51468;BME280;37545;45.302;-122.946;2023-11-19T04:23:00;100038.44;;;8.73;100.00
51468;BME280;37545;45.302;-122.946;2023-11-19T04:25:30;100043.50;;;8.70;100.00
51468;BME280;37545;45.302;-122.946;2023-11-19T04:27:59;100057.06;;;8.63;100.00
51468;BME280;37545;45.302;-122.946;2023-11-19T04:30:27;100058.72;;;8.60;100.00
51468;BME280;37545;45.302;-122.946;2023-11-19T04:32:58;100064.63;;;8.56;100.00
51468;BME280;37545;45.302;-122.946;2023-11-19T04:35:26;100074.06;;;8.56;100.00
51468;BME280;37545;45.302;-122.946;2023-11-19T04:37:55;100075.66;;;8.51;100.00
51468;BME280;37545;45.302;-122.946;2023-11-19T04:40:24;100074.81;;;8.50;100.00
51468;BME280;37545;45.302;-122.946;2023-11-19T04:42:54;100093.00;;;8.56;100.00
51468;BME280;37545;45.302;-122.946;2023-11-19T04:45:22;100099.97;;;8.59;100.00
51468;BME280;37545;45.302;-122.946;2023-11-19T04:47:51;100105.25;;;8.64;100.00
51468;BME280;37545;45.302;-122.946;2023-11-19T04:50:20;100110.44;;;8.65;100.00
51468;BME280;37545;45.302;-122.946;2023-11-19T04:52:48;100113.00;;;8.65;100.00
51468;BME280;37545;45.302;-122.946;2023-11-19T04:55:17;100117.28;;;8.65;100.00
51468;BME280;37545;45.302;-122.946;2023-11-19T04:57:45;100132.72;;;8.63;100.00
51468;BME280;37545;45.302;-122.946;2023-11-19T05:00:16;100128.47;;;8.64;100.00
51468;BME280;37545;45.302;-122.946;2023-11-19T05:02:45;100134.59;;;8.69;100.00
51468;BME280;37545;45.302;-122.946;2023-11-19T05:05:15;100147.56;;;8.72;100.00
51468;BME280;37545;45.302;-122.946;2023-11-19T05:07:43;100154.53;;;8.74;100.00
51468;BME280;37545;45.302;-122.946;2023-11-19T05:10:12;100170.91;;;8.76;100.00
51468;BME280;37545;45.302;-122.946;2023-11-19T05:12:41;100165.56;;;8.70;100.00
51468;BME280;37545;45.302;-122.946;2023-11-19T05:15:10;100181.19;;;8.75;100.00
51468;BME280;37545;45.302;-122.946;2023-11-19T05:17:42;100197.56;;;8.77;100.00
51468;BME280;37545;45.302;-122.946;2023-11-19T05:20:11;100202.84;;;8.80;100.00
51468;BME280;37545;45.302;-122.946;2023-11-19T05:22:42;100214.09;;;8.82;100.00
51468;BME280;37545;45.302;-122.946;2023-11-19T05:25:12;100214.97;;;8.84;100.00
51468;BME280;37545;45.302;-122.946;2023-11-19T05:27:40;100220.19;;;8.86;100.00
51468;BME280;37545;45.302;-122.946;2023-11-19T05:30:22;100233.09;;;8.86;100.00
51468;BME280;37545;45.302;-122.946;2023-11-19T05:33:00;100245.94;;;8.84;100.00
51468;BME280;37545;45.302;-122.946;2023-11-19T05:35:29;100248.56;;;8.86;100.00
51468;BME280;37545;45.302;-122.946;2023-11-19T05:38:00;100247.69;;;8.85;100.00
51468;BME280;37545;45.302;-122.946;2023-11-19T05:40:52;100258.81;;;8.84;100.00
51468;BME280;37545;45.302;-122.946;2023-11-19T05:43:21;100270.00;;;8.83;100.00
51468;BME280;37545;45.302;-122.946;2023-11-19T05:45:49;100285.41;;;8.81;100.00
51468;BME280;37545;45.302;-122.946;2023-11-19T05:48:19;100288.78;;;8.79;100.00
51468;BME280;37545;45.302;-122.946;2023-11-19T05:50:48;100293.13;;;8.80;100.00
51468;BME280;37545;45.302;-122.946;2023-11-19T05:53:16;100296.63;;;8.82;100.00
51468;BME280;37545;45.302;-122.946;2023-11-19T05:55:45;100312.13;;;8.82;100.00
51468;BME280;37545;45.302;-122.946;2023-11-19T05:58:22;100321.59;;;8.83;100.00
51468;BME280;37545;45.302;-122.946;2023-11-19T06:00:51;100330.13;;;8.80;100.00
51468;BME280;37545;45.302;-122.946;2023-11-19T06:03:22;100335.34;;;8.82;100.00
51468;BME280;37545;45.302;-122.946;2023-11-19T06:05:50;100354.28;;;8.84;100.00
51468;BME280;37545;45.302;-122.946;2023-11-19T06:08:20;100360.38;;;8.86;100.00
51468;BME280;37545;45.302;-122.946;2023-11-19T06:10:49;100370.81;;;8.91;100.00
51468;BME280;37545;45.302;-122.946;2023-11-19T06:13:20;100365.66;;;8.91;100.00
51468;BME280;37545;45.302;-122.946;2023-11-19T06:15:48;100383.72;;;8.91;100.00
51468;BME280;37545;45.302;-122.946;2023-11-19T06:18:17;100394.16;;;8.94;100.00
51468;BME280;37545;45.302;-122.946;2023-11-19T06:20:47;100405.44;;;8.97;100.00
51468;BME280;37545;45.302;-122.946;2023-11-19T06:23:16;100402.03;;;8.98;100.00
51468;BME280;37545;45.302;-122.946;2023-11-19T06:25:45;100411.53;;;8.99;100.00
51468;BME280;37545;45.302;-122.946;2023-11-19T06:28:14;100414.09;;;8.99;100.00
51468;BME280;37545;45.302;-122.946;2023-11-19T06:30:42;100432.28;;;9.02;100.00
51468;BME280;37545;45.302;-122.946;2023-11-19T06:33:13;100428.84;;;9.04;100.00
51468;BME280;37545;45.302;-122.946;2023-11-19T06:35:42;100439.25;;;9.07;100.00
51468;BME280;37545;45.302;-122.946;2023-11-19T06:38:12;100445.22;;;9.04;100.00
51468;BME280;37545;45.302;-122.946;2023-11-19T06:40:41;100445.13;;;9.01;100.00
51468;BME280;37545;45.302;-122.946;2023-11-19T06:43:09;100453.72;;;9.01;100.00
51468;BME280;37545;45.302;-122.946;2023-11-19T06:45:38;100476.19;;;9.04;100.00
51468;BME280;37545;45.302;-122.946;2023-11-19T06:48:06;100471.94;;;9.06;100.00
51468;BME280;37545;45.302;-122.946;2023-11-19T06:50:35;100477.16;;;9.08;100.00
51468;BME280;37545;45.302;-122.946;2023-11-19T06:53:04;100479.63;;;9.05;100.00
51468;BME280;37545;45.302;-122.946;2023-11-19T06:55:39;100493.28;;;9.00;100.00
51468;BME280;37545;45.302;-122.946;2023-11-19T06:58:10;100504.47;;;9.01;100.00
51468;BME280;37545;45.302;-122.946;2023-11-19T07:00:38;100507.13;;;9.02;100.00
51468;BME280;37545;45.302;-122.946;2023-11-19T07:03:07;100521.75;;;9.04;100.00
51468;BME280;37545;45.302;-122.946;2023-11-19T07:05:36;100532.09;;;9.04;100.00
51468;BME280;37545;45.302;-122.946;2023-11-19T07:08:08;100536.53;;;9.08;100.00
51468;BME280;37545;45.302;-122.946;2023-11-19T07:10:39;100552.16;;;9.12;100.00
51468;BME280;37545;45.302;-122.946;2023-11-19T07:13:07;100551.38;;;9.15;100.00
51468;BME280;37545;45.302;-122.946;2023-11-19T07:15:36;100560.91;;;9.17;100.00
51468;BME280;37545;45.302;-122.946;2023-11-19T07:18:05;100580.78;;;9.20;100.00
51468;BME280;37545;45.302;-122.946;2023-11-19T07:20:38;100603.22;;;9.21;100.00
51468;BME280;37545;45.302;-122.946;2023-11-19T07:23:13;100602.28;;;9.19;100.00
51468;BME280;37545;45.302;-122.946;2023-11-19T07:25:44;100605.78;;;9.21;100.00
51468;BME280;37545;45.302;-122.946;2023-11-19T07:28:13;100604.09;;;9.23;100.00
51468;BME280;37545;45.302;-122.946;2023-11-19T07:30:43;100621.22;;;9.19;100.00
51468;BME280;37545;45.302;-122.946;2023-11-19T07:33:11;100616.72;;;9.14;100.00
51468;BME280;37545;45.302;-122.946;2023-11-19T07:35:40;100640.69;;;9.10;100.00
51468;BME280;37545;45.302;-122.946;2023-11-19T07:38:09;100648.47;;;9.11;100.00
51468;BME280;37545;45.302;-122.946;2023-11-19T07:40:38;100662.38;;;9.15;100.00
51468;BME280;37545;45.302;-122.946;2023-11-19T07:43:08;100666.81;;;9.19;100.00
51468;BME280;37545;45.302;-122.946;2023-11-19T07:45:37;100677.16;;;9.19;100.00
51468;BME280;37545;45.302;-122.946;2023-11-19T07:48:05;100681.53;;;9.21;100.00
51468;BME280;37545;45.302;-122.946;2023-11-19T07:50:34;100682.41;;;9.22;100.00
51468;BME280;37545;45.302;-122.946;2023-11-19T07:53:02;100691.00;;;9.21;100.00
51468;BME280;37545;45.302;-122.946;2023-11-19T07:55:31;100708.16;;;9.20;100.00
51468;BME280;37545;45.302;-122.946;2023-11-19T07:57:59;100702.19;;;9.21;100.00
51468;BME280;37545;45.302;-122.946;2023-11-19T08:00:29;100710.72;;;9.20;100.00
51468;BME280;37545;45.302;-122.946;2023-11-19T08:02:59;100727.94;;;9.20;100.00
51468;BME280;37545;45.302;-122.946;2023-11-19T08:05:28;100733.19;;;9.23;100.00
51468;BME280;37545;45.302;-122.946;2023-11-19T08:07:56;100726.34;;;9.23;100.00
51468;BME280;37545;45.302;-122.946;2023-11-19T08:10:26;100737.66;;;9.27;100.00
51468;BME280;37545;45.302;-122.946;2023-11-19T08:12:55;100767.69;;;9.25;100.00
51468;BME280;37545;45.302;-122.946;2023-11-19T08:15:25;100771.91;;;9.23;100.00
51468;BME280;37545;45.302;-122.946;2023-11-19T08:17:56;100794.03;;;9.15;100.00
51468;BME280;37545;45.302;-122.946;2023-11-19T08:20:24;100807.72;;;9.12;100.00
51468;BME280;37545;45.302;-122.946;2023-11-19T08:22:53;100813.81;;;9.14;100.00
51468;BME280;37545;45.302;-122.946;2023-11-19T08:25:21;100824.91;;;9.12;100.00
51468;BME280;37545;45.302;-122.946;2023-11-19T08:27:54;100830.06;;;9.12;100.00
51468;BME280;37545;45.302;-122.946;2023-11-19T08:30:22;100838.28;;;9.01;100.00
51468;BME280;37545;45.302;-122.946;2023-11-19T08:32:50;100842.56;;;9.01;100.00
51468;BME280;37545;45.302;-122.946;2023-11-19T08:35:21;100862.44;;;9.04;100.00
51468;BME280;37545;45.302;-122.946;2023-11-19T08:37:50;100865.97;;;9.06;100.00
51468;BME280;37545;45.302;-122.946;2023-11-19T08:40:19;100889.44;;;9.12;100.00
51468;BME280;37545;45.302;-122.946;2023-11-19T08:42:48;100888.69;;;9.16;100.00
51468;BME280;37545;45.302;-122.946;2023-11-19T08:45:16;100898.41;;;9.21;100.00
51468;BME280;37545;45.302;-122.946;2023-11-19T08:47:45;100910.63;;;9.27;100.00
51468;BME280;37545;45.302;-122.946;2023-11-19T08:50:13;100921.09;;;9.30;100.00
51468;BME280;37545;45.302;-122.946;2023-11-19T08:52:45;100934.13;;;9.33;100.00
51468;BME280;37545;45.302;-122.946;2023-11-19T08:55:14;100947.13;;;9.36;100.00
51468;BME280;37545;45.302;-122.946;2023-11-19T08:57:43;100955.88;;;9.40;100.00
51468;BME280;37545;45.302;-122.946;2023-11-19T09:00:12;100968.97;;;9.44;100.00
51468;BME280;37545;45.302;-122.946;2023-11-19T09:02:42;100977.59;;;9.45;100.00
51468;BME280;37545;45.302;-122.946;2023-11-19T09:05:11;100988.94;;;9.49;100.00
51468;BME280;37545;45.302;-122.946;2023-11-19T09:07:39;100990.63;;;9.48;100.00
51468;BME280;37545;45.302;-122.946;2023-11-19T09:10:10;100997.56;;;9.49;100.00
51468;BME280;37545;45.302;-122.946;2023-11-19T09:12:38;101006.25;;;9.51;100.00
51468;BME280;37545;45.302;-122.946;2023-11-19T09:15:08;101020.09;;;9.53;100.00
51468;BME280;37545;45.302;-122.946;2023-11-19T09:17:37;101020.22;;;9.56;100.00
51468;BME280;37545;45.302;-122.946;2023-11-19T09:20:07;101025.31;;;9.55;100.00
51468;BME280;37545;45.302;-122.946;2023-11-19T09:22:38;101030.53;;;9.56;100.00
51468;BME280;37545;45.302;-122.946;2023-11-19T09:25:09;101031.31;;;9.54;100.00
51468;BME280;37545;45.302;-122.946;2023-11-19T09:27:38;101045.88;;;9.52;100.00
51468;BME280;37545;45.302;-122.946;2023-11-19T09:30:08;101052.50;;;9.45;100.00
51468;BME280;37545;45.302;-122.946;2023-11-19T09:32:37;101062.72;;;9.42;100.00
51468;BME280;37545;45.302;-122.946;2023-11-19T09:35:06;101060.94;;;9.41;100.00
51468;BME280;37545;45.302;-122.946;2023-11-19T09:37:35;101075.56;;;9.40;100.00
51468;BME280;37545;45.302;-122.946;2023-11-19T09:40:04;101087.53;;;9.38;100.00
51468;BME280;37545;45.302;-122.946;2023-11-19T09:42:43;101104.66;;;9.36;100.00
51468;BME280;37545;45.302;-122.946;2023-11-19T09:45:14;101111.44;;;9.33;100.00
51468;BME280;37545;45.302;-122.946;2023-11-19T09:47:44;101124.38;;;9.34;100.00
51468;BME280;37545;45.302;-122.946;2023-11-19T09:50:16;101125.22;;;9.33;100.00
51468;BME280;37545;45.302;-122.946;2023-11-19T09:52:48;101134.41;;;9.27;100.00
51468;BME280;37545;45.302;-122.946;2023-11-19T09:55:16;101140.34;;;9.24;100.00
51468;BME280;37545;45.302;-122.946;2023-11-19T09:57:47;101144.53;;;9.22;100.00
51468;BME280;37545;45.302;-122.946;2023-11-19T10:00:17;101151.28;;;9.18;100.00
51468;BME280;37545;45.302;-122.946;2023-11-19T10:02:49;101155.31;;;9.12;100.00
51468;BME280;37545;45.302;-122.946;2023-11-19T10:05:20;101157.72;;;9.07;100.00
51468;BME280;37545;45.302;-122.946;2023-11-19T10:07:50;101163.41;;;9.00;100.00
51468;BME280;37545;45.302;-122.946;2023-11-19T10:10:19;101166.50;;;8.91;100.00
51468;BME280;37545;45.302;-122.946;2023-11-19T10:12:51;101177.72;;;8.92;100.00
51468;BME280;37545;45.302;-122.946;2023-11-19T10:15:21;101198.94;;;8.86;100.00
51468;BME280;37545;45.302;-122.946;2023-11-19T10:17:51;101197.88;;;8.81;100.00
51468;BME280;37545;45.302;-122.946;2023-11-19T10:20:19;101207.13;;;8.76;100.00
51468;BME280;37545;45.302;-122.946;2023-11-19T10:22:50;101210.50;;;8.75;100.00
51468;BME280;37545;45.302;-122.946;2023-11-19T10:25:24;101217.31;;;8.73;100.00
51468;BME280;37545;45.302;-122.946;2023-11-19T10:27:56;101218.94;;;8.71;100.00
51468;BME280;37545;45.302;-122.946;2023-11-19T10:30:25;101215.13;;;8.63;100.00
51468;BME280;37545;45.302;-122.946;2023-11-19T10:33:05;101227.34;;;8.67;100.00
51468;BME280;37545;45.302;-122.946;2023-11-19T10:35:34;101239.31;;;8.65;100.00
51468;BME280;37545;45.302;-122.946;2023-11-19T10:38:17;101252.19;;;8.65;100.00
51468;BME280;37545;45.302;-122.946;2023-11-19T10:40:48;101251.88;;;8.57;100.00
51468;BME280;37545;45.302;-122.946;2023-11-19T10:43:19;101266.44;;;8.56;100.00
51468;BME280;37545;45.302;-122.946;2023-11-19T10:45:48;101259.38;;;8.52;98.41
51468;BME280;37545;45.302;-122.946;2023-11-19T10:48:17;101262.63;;;8.48;95.60
51468;BME280;37545;45.302;-122.946;2023-11-19T10:50:53;101266.97;;;8.49;96.88
51468;BME280;37545;45.302;-122.946;2023-11-19T10:53:23;101288.44;;;8.48;96.89
51468;BME280;37545;45.302;-122.946;2023-11-19T10:55:56;101292.63;;;8.46;98.28
51468;BME280;37545;45.302;-122.946;2023-11-19T10:58:29;101292.97;;;8.36;97.59
51468;BME280;37545;45.302;-122.946;2023-11-19T11:01:02;101295.19;;;8.28;98.51
51468;BME280;37545;45.302;-122.946;2023-11-19T11:03:37;101309.66;;;8.25;99.74
51468;BME280;37545;45.302;-122.946;2023-11-19T11:06:11;101316.56;;;8.26;100.00
51468;BME280;37545;45.302;-122.946;2023-11-19T11:08:41;101329.13;;;8.19;100.00
51468;BME280;37545;45.302;-122.946;2023-11-19T11:11:13;101328.03;;;8.14;100.00
51468;BME280;37545;45.302;-122.946;2023-11-19T11:13:46;101339.97;;;8.12;100.00
51468;BME280;37545;45.302;-122.946;2023-11-19T11:16:18;101339.00;;;8.10;100.00
51468;BME280;37545;45.302;-122.946;2023-11-19T11:18:50;101357.00;;;8.09;100.00
51468;BME280;37545;45.302;-122.946;2023-11-19T11:21:22;101366.34;;;8.07;100.00
51468;BME280;37545;45.302;-122.946;2023-11-19T11:30:19;101394.75;;;8.08;100.00
51468;BME280;37545;45.302;-122.946;2023-11-19T11:32:57;101408.78;;;8.13;100.00
51468;BME280;37545;45.302;-122.946;2023-11-19T11:35:33;101418.56;;;8.21;100.00
51468;BME280;37545;45.302;-122.946;2023-11-19T11:38:08;101423.78;;;8.22;100.00
51468;BME280;37545;45.302;-122.946;2023-11-19T11:40:37;101424.75;;;8.24;100.00
51468;BME280;37545;45.302;-122.946;2023-11-19T11:43:43;101426.59;;;8.27;100.00
51468;BME280;37545;45.302;-122.946;2023-11-19T11:46:55;101428.38;;;8.28;97.82
51468;BME280;37545;45.302;-122.946;2023-11-19T11:49:28;101440.31;;;8.26;97.77
51468;BME280;37545;45.302;-122.946;2023-11-19T11:52:04;101455.63;;;8.23;97.27
51468;BME280;37545;45.302;-122.946;2023-11-19T11:54:31;101466.59;;;8.18;97.41
51468;BME280;37545;45.302;-122.946;2023-11-19T11:57:18;101474.19;;;8.15;98.28
51468;BME280;37545;45.302;-122.946;2023-11-19T11:59:49;101482.38;;;8.08;97.94
51468;BME280;37545;45.302;-122.946;2023-11-19T12:02:21;101488.13;;;8.03;99.09
51468;BME280;37545;45.302;-122.946;2023-11-19T12:04:51;101490.06;;;7.90;100.00
51468;BME280;37545;45.302;-122.946;2023-11-19T12:07:21;101496.16;;;7.92;99.04
51468;BME280;37545;45.302;-122.946;2023-11-19T12:09:53;101494.78;;;7.99;99.59
51468;BME280;37545;45.302;-122.946;2023-11-19T12:12:34;101509.47;;;8.00;99.14
51468;BME280;37545;45.302;-122.946;2023-11-19T12:15:08;101534.50;;;8.03;98.50
51468;BME280;37545;45.302;-122.946;2023-11-19T12:17:48;101532.97;;;8.06;100.00
51468;BME280;37545;45.302;-122.946;2023-11-19T12:20:17;101549.47;;;8.10;100.00
51468;BME280;37545;45.302;-122.946;2023-11-19T12:22:47;101554.09;;;8.15;100.00
51468;BME280;37545;45.302;-122.946;2023-11-19T12:25:34;101551.66;;;8.18;100.00
51468;BME280;37545;45.302;-122.946;2023-11-19T12:28:04;101559.16;;;8.14;100.00
51468;BME280;37545;45.302;-122.946;2023-11-19T12:30:35;101560.66;;;8.10;100.00
51468;BME280;37545;45.302;-122.946;2023-11-19T12:33:10;101561.88;;;8.01;100.00
51468;BME280;37545;45.302;-122.946;2023-11-19T12:35:39;101563.59;;;8.00;100.00
51468;BME280;37545;45.302;-122.946;2023-11-19T12:38:17;101564.94;;;7.93;100.00
51468;BME280;37545;45.302;-122.946;2023-11-19T12:40:46;101565.69;;;7.91;100.00
51468;BME280;37545;45.302;-122.946;2023-11-19T12:43:22;101579.19;;;7.87;100.00
51468;BME280;37545;45.302;-122.946;2023-11-19T12:45:53;101585.88;;;7.83;100.00
51468;BME280;37545;45.302;-122.946;2023-11-19T12:48:23;101588.38;;;7.82;100.00